Time;durP1;ratioP1;P1;durP2;ratioP2;P2;SDS_P1;SDS_P2;PMS_P1;PMS_P2;Temp;Humidity;BMP_temperature;BMP_pressure;BME280_temperature;BME280_humidity;BME280_pressure;Samples;Min_cycle;Max_cycle;Signal;HPM_P1;HPM_P2
2022/08/31 00:05:08;;;;;;;38.08;34.15;;;;;;;;;;5104551;28;20091;-77
2022/08/31 00:07:34;;;;;;;37.90;32.53;;;;;;;;;;5082643;28;20031;-80
2022/08/31 00:10:12;;;;;;;36.17;32.45;;;;;;;;;;5096102;28;20020;-78
2022/08/31 00:12:39;;;;;;;37.08;31.92;;;;;;;;;;5087681;28;20025;-79
2022/08/31 00:15:05;;;;;;;34.08;30.45;;;;;;;;;;5089415;28;20024;-78
2022/08/31 00:17:31;;;;;;;35.90;32.00;;;;;;;;;;5108299;28;20028;-78
2022/08/31 00:19:57;;;;;;;37.30;31.38;;;;;;;;;;5090885;28;20024;-78
2022/08/31 00:22:23;;;;;;;34.22;30.70;;;;;;;;;;5088122;28;20024;-81
2022/08/31 00:24:49;;;;;;;37.20;33.28;;;;;;;;;;5096360;28;20043;-80
2022/08/31 00:27:15;;;;;;;34.97;27.83;;;;;;;;;;5087037;28;20145;-80
2022/08/31 00:29:41;;;;;;;33.88;28.20;;;;;;;;;;5090626;28;20047;-80
2022/08/31 00:32:07;;;;;;;38.20;30.15;;;;;;;;;;5084522;28;20016;-81
2022/08/31 00:34:33;;;;;;;33.83;27.02;;;;;;;;;;5096763;28;20072;-80
2022/08/31 00:37:00;;;;;;;33.58;25.92;;;;;;;;;;5098120;28;20093;-80
2022/08/31 00:39:26;;;;;;;36.08;26.98;;;;;;;;;;5096311;28;20048;-80
2022/08/31 00:41:52;;;;;;;26.55;23.80;;;;;;;;;;5096471;28;20024;-82
2022/08/31 00:44:18;;;;;;;33.40;28.98;;;;;;;;;;5096533;28;20115;-80
2022/08/31 00:46:44;;;;;;;27.25;24.23;;;;;;;;;;5084248;28;20048;-78
2022/08/31 00:49:25;;;;;;;26.65;23.77;;;;;;;;;;5079578;28;20020;-80
2022/08/31 00:51:51;;;;;;;34.67;24.55;;;;;;;;;;5096007;28;20051;-79
2022/08/31 00:54:19;;;;;;;30.92;26.48;;;;;;;;;;5081985;28;20023;-79
2022/08/31 00:56:46;;;;;;;37.53;27.08;;;;;;;;;;5096250;28;20363;-79
2022/08/31 00:59:13;;;;;;;31.38;24.30;;;;;;;;;;5095542;28;20089;-79
2022/08/31 01:01:40;;;;;;;26.33;23.45;;;;;;;;;;5095954;28;20020;-78
2022/08/31 01:04:06;;;;;;;32.60;26.00;;;;;;;;;;5080501;28;20020;-78
2022/08/31 01:06:32;;;;;;;30.67;25.55;;;;;;;;;;5082637;28;20020;-78
2022/08/31 01:09:00;;;;;;;30.77;27.45;;;;;;;;;;5096036;28;20024;-80
2022/08/31 01:11:26;;;;;;;28.83;25.45;;;;;;;;;;5108518;28;20020;-79
2022/08/31 01:13:52;;;;;;;39.92;35.63;;;;;;;;;;5087243;28;20020;-79
2022/08/31 01:16:27;;;;;;;35.05;27.95;;;;;;;;;;5092033;28;20035;-79
2022/08/31 01:18:56;;;;;;;33.47;28.27;;;;;;;;;;5086397;28;20031;-79
2022/08/31 01:21:25;;;;;;;31.00;27.75;;;;;;;;;;5080879;28;20027;-79
2022/08/31 01:23:52;;;;;;;37.58;30.98;;;;;;;;;;5103495;28;20488;-83
2022/08/31 01:26:19;;;;;;;39.78;34.33;;;;;;;;;;5077229;28;20026;-79
2022/08/31 01:28:45;;;;;;;34.85;29.90;;;;;;;;;;5087346;28;20466;-80
2022/08/31 01:31:19;;;;;;;37.70;29.63;;;;;;;;;;5089154;28;20032;-82
2022/08/31 01:33:46;;;;;;;31.70;26.50;;;;;;;;;;5084990;28;20027;-80
2022/08/31 01:36:13;;;;;;;31.55;28.23;;;;;;;;;;5075476;28;20115;-79
2022/08/31 01:38:39;;;;;;;31.88;28.45;;;;;;;;;;5091700;28;20422;-79
2022/08/31 01:41:05;;;;;;;30.98;25.65;;;;;;;;;;5095181;28;20022;-80
2022/08/31 01:43:35;;;;;;;29.17;26.05;;;;;;;;;;5095075;28;20073;-78
2022/08/31 01:46:02;;;;;;;27.95;24.95;;;;;;;;;;5081068;28;20015;-80
2022/08/31 01:48:28;;;;;;;32.47;25.88;;;;;;;;;;5094800;28;20020;-78
2022/08/31 01:50:54;;;;;;;27.00;22.85;;;;;;;;;;5076439;28;20016;-79
2022/08/31 01:53:21;;;;;;;30.80;24.17;;;;;;;;;;5074852;28;20459;-79
2022/08/31 01:55:47;;;;;;;27.00;23.63;;;;;;;;;;5091402;28;20028;-79
2022/08/31 01:58:13;;;;;;;28.13;22.98;;;;;;;;;;5094364;28;20118;-78
2022/08/31 02:00:39;;;;;;;28.75;25.38;;;;;;;;;;5094689;28;20023;-78
2022/08/31 02:03:06;;;;;;;25.70;22.75;;;;;;;;;;5092108;28;20053;-78
2022/08/31 02:05:34;;;;;;;28.92;22.23;;;;;;;;;;5094660;28;20020;-79
2022/08/31 02:08:00;;;;;;;34.13;24.65;;;;;;;;;;5094805;28;20023;-79
2022/08/31 02:10:26;;;;;;;31.52;24.63;;;;;;;;;;5083389;28;20035;-79
2022/08/31 02:12:53;;;;;;;28.38;23.25;;;;;;;;;;5074577;28;20016;-79
2022/08/31 02:15:19;;;;;;;28.17;22.65;;;;;;;;;;5074576;28;20078;-78
2022/08/31 02:17:45;;;;;;;25.50;22.80;;;;;;;;;;5075690;28;20085;-78
2022/08/31 02:20:12;;;;;;;29.80;24.00;;;;;;;;;;5095222;28;20028;-81
2022/08/31 02:22:38;;;;;;;26.95;24.10;;;;;;;;;;5081043;28;20355;-79
2022/08/31 02:25:06;;;;;;;27.77;22.95;;;;;;;;;;5074298;28;20027;-78
2022/08/31 02:27:33;;;;;;;26.45;22.90;;;;;;;;;;5086408;28;20061;-79
2022/08/31 02:29:59;;;;;;;28.05;22.45;;;;;;;;;;5076111;28;20028;-77
2022/08/31 02:32:25;;;;;;;29.80;23.95;;;;;;;;;;5080471;28;20470;-78
2022/08/31 02:34:51;;;;;;;26.90;23.38;;;;;;;;;;5090249;28;20114;-78
2022/08/31 02:37:18;;;;;;;28.45;25.35;;;;;;;;;;5094281;28;20035;-79
2022/08/31 02:39:44;;;;;;;31.75;26.33;;;;;;;;;;5085888;28;20461;-78
2022/08/31 02:42:10;;;;;;;32.22;25.98;;;;;;;;;;5091867;28;20042;-79
2022/08/31 02:44:36;;;;;;;28.55;25.55;;;;;;;;;;5074098;28;20027;-78
2022/08/31 02:47:02;;;;;;;31.38;25.95;;;;;;;;;;5088157;28;20161;-81
2022/08/31 02:49:28;;;;;;;26.60;22.73;;;;;;;;;;5080469;28;20051;-80
2022/08/31 02:51:54;;;;;;;30.15;22.90;;;;;;;;;;5091001;28;20103;-80
2022/08/31 02:54:20;;;;;;;28.23;23.92;;;;;;;;;;5111932;28;20045;-80
2022/08/31 02:56:46;;;;;;;34.90;25.38;;;;;;;;;;5101583;28;20020;-79
2022/08/31 02:59:12;;;;;;;24.95;22.45;;;;;;;;;;5076761;28;20046;-79
2022/08/31 03:01:39;;;;;;;29.50;23.15;;;;;;;;;;5085367;28;20492;-79
2022/08/31 03:04:05;;;;;;;26.52;22.88;;;;;;;;;;5079852;28;20035;-80
2022/08/31 03:06:31;;;;;;;25.27;22.50;;;;;;;;;;5087386;28;20020;-80
2022/08/31 03:09:01;;;;;;;24.08;21.50;;;;;;;;;;5087251;28;20019;-80
2022/08/31 03:11:28;;;;;;;25.58;22.75;;;;;;;;;;5076581;28;20024;-81
2022/08/31 03:13:54;;;;;;;23.50;21.25;;;;;;;;;;5077886;28;20471;-80
2022/08/31 03:16:20;;;;;;;23.25;20.95;;;;;;;;;;5081598;28;20023;-79
2022/08/31 03:18:47;;;;;;;27.35;22.42;;;;;;;;;;5097748;28;20023;-80
2022/08/31 03:21:13;;;;;;;28.38;22.38;;;;;;;;;;5081576;28;20024;-80
2022/08/31 03:23:39;;;;;;;29.05;21.85;;;;;;;;;;5089754;28;20032;-80
2022/08/31 03:26:06;;;;;;;28.92;21.85;;;;;;;;;;5092025;28;20104;-80
2022/08/31 03:28:36;;;;;;;24.23;21.65;;;;;;;;;;5093095;28;20031;-80
2022/08/31 03:31:03;;;;;;;26.10;23.35;;;;;;;;;;5092350;28;20410;-78
2022/08/31 03:33:29;;;;;;;27.75;21.67;;;;;;;;;;5091860;28;20053;-78
2022/08/31 03:35:55;;;;;;;24.73;21.30;;;;;;;;;;5099269;28;20069;-78
2022/08/31 03:38:21;;;;;;;24.17;20.52;;;;;;;;;;5097568;28;20093;-78
2022/08/31 03:40:47;;;;;;;22.52;20.38;;;;;;;;;;5098317;28;20020;-78
2022/08/31 03:43:13;;;;;;;24.40;21.10;;;;;;;;;;5086064;28;20020;-78
2022/08/31 03:45:40;;;;;;;27.23;22.00;;;;;;;;;;5091831;28;20047;-78
2022/08/31 03:48:07;;;;;;;27.73;21.08;;;;;;;;;;5097407;28;20027;-77
2022/08/31 03:50:33;;;;;;;24.08;21.35;;;;;;;;;;5081102;28;20024;-77
2022/08/31 03:53:03;;;;;;;31.75;21.52;;;;;;;;;;5084880;28;20031;-78
2022/08/31 03:55:29;;;;;;;29.13;22.85;;;;;;;;;;5096964;28;20382;-80
2022/08/31 03:57:55;;;;;;;26.63;21.17;;;;;;;;;;5076685;28;20077;-78
2022/08/31 04:00:22;;;;;;;27.52;20.08;;;;;;;;;;5089464;28;20096;-78
2022/08/31 04:02:48;;;;;;;24.30;19.33;;;;;;;;;;5078066;28;20059;-76
2022/08/31 04:05:15;;;;;;;27.50;20.63;;;;;;;;;;5086290;28;20047;-78
2022/08/31 04:07:41;;;;;;;24.85;22.00;;;;;;;;;;5092955;28;20020;-78
2022/08/31 04:10:08;;;;;;;28.73;24.15;;;;;;;;;;5088393;28;20016;-79
2022/08/31 04:12:34;;;;;;;31.48;26.27;;;;;;;;;;5091588;28;20055;-79
2022/08/31 04:15:01;;;;;;;38.40;26.33;;;;;;;;;;5115376;28;20059;-79
2022/08/31 04:17:27;;;;;;;37.05;31.63;;;;;;;;;;5083167;28;20111;-79
2022/08/31 04:19:53;;;;;;;35.95;29.77;;;;;;;;;;5095496;28;20031;-81
2022/08/31 04:22:19;;;;;;;32.03;25.75;;;;;;;;;;5096407;28;20155;-78
2022/08/31 04:24:45;;;;;;;37.47;27.88;;;;;;;;;;5079124;28;20078;-80
2022/08/31 04:27:11;;;;;;;34.03;26.95;;;;;;;;;;5082643;28;20093;-80
2022/08/31 04:29:38;;;;;;;39.03;26.58;;;;;;;;;;5076659;28;20032;-80
2022/08/31 04:32:04;;;;;;;29.80;25.17;;;;;;;;;;5083911;28;20094;-79
2022/08/31 04:34:31;;;;;;;29.20;26.20;;;;;;;;;;5096615;28;20065;-83
2022/08/31 04:36:57;;;;;;;30.45;25.13;;;;;;;;;;5082520;28;20020;-81
2022/08/31 04:39:23;;;;;;;34.42;24.98;;;;;;;;;;5096869;28;20498;-81
2022/08/31 04:41:50;;;;;;;35.67;25.50;;;;;;;;;;5102733;28;20035;-84
2022/08/31 04:44:16;;;;;;;30.33;27.20;;;;;;;;;;5098240;28;20020;-82
2022/08/31 04:46:42;;;;;;;31.80;25.15;;;;;;;;;;5097990;28;20470;-81
2022/08/31 04:49:09;;;;;;;35.15;25.73;;;;;;;;;;5084400;28;21246;-82
2022/08/31 04:51:36;;;;;;;27.55;24.70;;;;;;;;;;5090060;28;20497;-83
2022/08/31 04:54:07;;;;;;;28.13;24.45;;;;;;;;;;5096424;28;20028;-80
2022/08/31 04:56:34;;;;;;;29.98;24.27;;;;;;;;;;5096101;28;20435;-81
2022/08/31 04:59:01;;;;;;;34.00;25.15;;;;;;;;;;5088343;28;20032;-81
2022/08/31 05:01:28;;;;;;;26.63;22.75;;;;;;;;;;5092733;28;20023;-81
2022/08/31 05:03:56;;;;;;;30.75;25.17;;;;;;;;;;5096257;28;20019;-80
2022/08/31 05:06:24;;;;;;;29.13;25.30;;;;;;;;;;5083801;28;20054;-81
2022/08/31 05:08:57;;;;;;;33.15;24.92;;;;;;;;;;5095678;28;20034;-81
2022/08/31 05:11:24;;;;;;;34.72;23.90;;;;;;;;;;5103084;28;20028;-82
2022/08/31 05:13:51;;;;;;;40.03;24.67;;;;;;;;;;5096106;28;20024;-81
2022/08/31 05:16:17;;;;;;;28.13;23.48;;;;;;;;;;5115732;28;20036;-81
2022/08/31 05:18:45;;;;;;;28.83;23.30;;;;;;;;;;5095908;28;20441;-80
2022/08/31 05:21:12;;;;;;;26.17;22.33;;;;;;;;;;5099452;28;20015;-81
2022/08/31 05:23:39;;;;;;;29.23;22.60;;;;;;;;;;5095726;28;20020;-81
2022/08/31 05:26:05;;;;;;;31.77;23.20;;;;;;;;;;5077818;28;20093;-81
2022/08/31 05:28:33;;;;;;;28.27;23.25;;;;;;;;;;5075450;28;20042;-83
2022/08/31 05:30:59;;;;;;;24.65;21.92;;;;;;;;;;5091569;28;20489;-82
2022/08/31 05:33:26;;;;;;;32.47;23.15;;;;;;;;;;5084583;28;20106;-82
2022/08/31 05:35:52;;;;;;;33.90;21.02;;;;;;;;;;5094978;28;20019;-78
2022/08/31 05:38:18;;;;;;;27.40;22.67;;;;;;;;;;5075278;28;20080;-81
2022/08/31 05:40:51;;;;;;;24.77;20.05;;;;;;;;;;5080259;28;20068;-82
2022/08/31 05:43:17;;;;;;;26.17;21.10;;;;;;;;;;5083404;28;20532;-80
2022/08/31 05:45:43;;;;;;;26.77;23.20;;;;;;;;;;5091605;28;20063;-80
2022/08/31 05:48:09;;;;;;;29.17;23.35;;;;;;;;;;5095258;28;20050;-80
2022/08/31 05:50:36;;;;;;;39.35;31.27;;;;;;;;;;5094916;28;20061;-81
2022/08/31 05:53:02;;;;;;;26.55;21.77;;;;;;;;;;5085938;28;20365;-80
2022/08/31 05:55:29;;;;;;;21.75;18.83;;;;;;;;;;5087344;28;20487;-81
2022/08/31 05:57:55;;;;;;;19.98;17.77;;;;;;;;;;5086651;28;20022;-82
2022/08/31 06:00:21;;;;;;;22.73;17.05;;;;;;;;;;5086924;28;20023;-81
2022/08/31 06:02:47;;;;;;;20.48;18.08;;;;;;;;;;5087054;28;20462;-82
2022/08/31 06:05:13;;;;;;;27.60;17.73;;;;;;;;;;5074777;28;20546;-81
2022/08/31 06:07:39;;;;;;;33.85;20.35;;;;;;;;;;5107614;28;20020;-81
2022/08/31 06:10:06;;;;;;;28.05;19.70;;;;;;;;;;5094638;28;20015;-80
2022/08/31 06:12:33;;;;;;;24.40;19.83;;;;;;;;;;5094933;28;20110;-80
2022/08/31 06:15:00;;;;;;;33.30;19.48;;;;;;;;;;5082969;28;20023;-78
2022/08/31 06:17:27;;;;;;;28.20;25.25;;;;;;;;;;5092577;28;20020;-78
2022/08/31 06:19:56;;;;;;;32.75;27.25;;;;;;;;;;5077685;28;20395;-78
2022/08/31 06:22:23;;;;;;;30.73;19.98;;;;;;;;;;5093616;28;20547;-81
2022/08/31 06:24:49;;;;;;;25.27;20.42;;;;;;;;;;5087846;28;20085;-79
2022/08/31 06:27:15;;;;;;;23.08;20.42;;;;;;;;;;5086372;28;20023;-79
2022/08/31 06:29:41;;;;;;;22.27;19.45;;;;;;;;;;5101874;28;20478;-80
2022/08/31 06:32:09;;;;;;;21.05;18.98;;;;;;;;;;5084957;28;20043;-79
2022/08/31 06:34:36;;;;;;;28.23;19.50;;;;;;;;;;5077017;28;20016;-79
2022/08/31 06:37:03;;;;;;;29.33;24.58;;;;;;;;;;5082913;28;20028;-80
2022/08/31 06:39:29;;;;;;;27.52;22.35;;;;;;;;;;5085137;28;20589;-79
2022/08/31 06:41:55;;;;;;;22.50;20.27;;;;;;;;;;5074237;28;20086;-79
2022/08/31 06:44:22;;;;;;;27.75;19.73;;;;;;;;;;5088247;28;20523;-79
2022/08/31 06:46:49;;;;;;;23.42;19.55;;;;;;;;;;5078226;28;20067;-78
2022/08/31 06:49:16;;;;;;;28.08;20.02;;;;;;;;;;5083839;28;20024;-79
2022/08/31 06:51:43;;;;;;;22.80;18.98;;;;;;;;;;5107122;28;20027;-79
2022/08/31 06:54:10;;;;;;;24.08;18.40;;;;;;;;;;5095111;28;20012;-78
2022/08/31 06:56:37;;;;;;;20.05;17.98;;;;;;;;;;5082917;28;20020;-78
2022/08/31 06:59:03;;;;;;;21.55;18.15;;;;;;;;;;5089084;28;20394;-78
2022/08/31 07:01:30;;;;;;;25.08;18.15;;;;;;;;;;5084398;28;20111;-78
2022/08/31 07:03:58;;;;;;;24.17;18.08;;;;;;;;;;5111407;28;20023;-79
2022/08/31 07:06:31;;;;;;;20.90;17.40;;;;;;;;;;5097281;28;20024;-78
2022/08/31 07:08:59;;;;;;;19.88;17.13;;;;;;;;;;5097308;28;20038;-79
2022/08/31 07:11:26;;;;;;;21.33;17.75;;;;;;;;;;5107865;28;20027;-78
2022/08/31 07:13:54;;;;;;;25.55;18.55;;;;;;;;;;5092491;28;20065;-77
2022/08/31 07:16:21;;;;;;;29.27;18.92;;;;;;;;;;5080003;28;20378;-77
2022/08/31 07:18:48;;;;;;;30.95;24.83;;;;;;;;;;5093799;28;20122;-80
2022/08/31 07:21:28;;;;;;;26.13;20.23;;;;;;;;;;5094976;28;20035;-79
2022/08/31 07:23:54;;;;;;;26.27;21.20;;;;;;;;;;5095091;28;20051;-79
2022/08/31 07:26:22;;;;;;;32.75;19.75;;;;;;;;;;5078361;28;20027;-77
2022/08/31 07:28:51;;;;;;;24.13;18.17;;;;;;;;;;5077519;28;20048;-79
2022/08/31 07:31:18;;;;;;;35.83;17.85;;;;;;;;;;5097119;28;20024;-77
2022/08/31 07:33:45;;;;;;;22.67;19.40;;;;;;;;;;5094489;28;20015;-78
2022/08/31 07:36:12;;;;;;;24.00;19.90;;;;;;;;;;5095240;28;20039;-77
2022/08/31 07:42:25;;;;;;;21.30;19.13;;;;;;;;;;5112705;28;20061;-79
2022/08/31 07:44:22;;;;;;;28.13;19.70;;;;;;;;;;5082452;28;20031;-78
2022/08/31 07:46:49;;;;;;;24.98;19.48;;;;;;;;;;5089341;28;20502;-78
2022/08/31 07:49:16;;;;;;;28.75;19.75;;;;;;;;;;5096323;28;20020;-78
2022/08/31 07:51:49;;;;;;;22.63;17.73;;;;;;;;;;5096664;28;20027;-78
2022/08/31 07:54:17;;;;;;;24.05;18.60;;;;;;;;;;5093103;28;20077;-77
2022/08/31 07:56:44;;;;;;;19.48;17.40;;;;;;;;;;5081765;28;20019;-78
2022/08/31 07:59:13;;;;;;;19.67;16.08;;;;;;;;;;5099459;28;20564;-78
2022/08/31 08:01:41;;;;;;;24.35;16.75;;;;;;;;;;5076230;28;20051;-78
2022/08/31 08:04:13;;;;;;;21.85;15.80;;;;;;;;;;5091573;28;20024;-80
2022/08/31 08:06:39;;;;;;;18.65;16.67;;;;;;;;;;5076652;28;20501;-78
2022/08/31 08:09:06;;;;;;;21.90;15.25;;;;;;;;;;5077822;28;20024;-79
2022/08/31 08:11:36;;;;;;;19.52;15.05;;;;;;;;;;5077147;28;20119;-78
2022/08/31 08:14:05;;;;;;;18.52;16.23;;;;;;;;;;5091896;28;20030;-79
2022/08/31 08:16:32;;;;;;;22.10;16.23;;;;;;;;;;5077599;28;20599;-78
2022/08/31 08:18:59;;;;;;;25.20;16.38;;;;;;;;;;5085492;28;20503;-81
2022/08/31 08:21:25;;;;;;;19.65;16.55;;;;;;;;;;5082045;28;20043;-84
2022/08/31 08:23:51;;;;;;;21.27;16.40;;;;;;;;;;5097106;28;20428;-79
2022/08/31 08:26:17;;;;;;;18.48;16.08;;;;;;;;;;5096149;28;20527;-79
2022/08/31 08:28:43;;;;;;;21.38;17.27;;;;;;;;;;5090634;28;20049;-80
2022/08/31 08:31:15;;;;;;;19.20;15.43;;;;;;;;;;5089340;28;20085;-79
2022/08/31 08:33:41;;;;;;;21.73;16.35;;;;;;;;;;5082483;28;20030;-80
2022/08/31 08:36:07;;;;;;;23.00;16.58;;;;;;;;;;5096915;28;20020;-83
2022/08/31 08:38:34;;;;;;;20.58;15.23;;;;;;;;;;5082065;28;20070;-82
2022/08/31 08:41:01;;;;;;;16.85;14.95;;;;;;;;;;5090050;28;20046;-82
2022/08/31 08:43:30;;;;;;;17.38;14.52;;;;;;;;;;5092557;28;20027;-81
2022/08/31 08:45:56;;;;;;;16.88;14.35;;;;;;;;;;5096549;28;20026;-81
2022/08/31 08:48:25;;;;;;;15.05;12.15;;;;;;;;;;5084818;28;20051;-80
2022/08/31 08:50:52;;;;;;;18.52;14.38;;;;;;;;;;5094057;28;20038;-80
2022/08/31 08:53:20;;;;;;;18.05;12.60;;;;;;;;;;5086211;28;20015;-79
2022/08/31 08:55:46;;;;;;;17.27;13.02;;;;;;;;;;5086555;28;20070;-83
2022/08/31 08:58:14;;;;;;;17.92;12.07;;;;;;;;;;5076374;28;20394;-82
2022/08/31 09:00:45;;;;;;;15.25;13.07;;;;;;;;;;5092600;28;20028;-83
2022/08/31 09:03:14;;;;;;;12.73;11.07;;;;;;;;;;5087398;28;20492;-84
2022/08/31 09:05:52;;;;;;;14.32;12.35;;;;;;;;;;5082089;28;20027;-81
2022/08/31 09:08:44;;;;;;;19.35;12.05;;;;;;;;;;5084320;28;20382;-83
2022/08/31 09:11:16;;;;;;;17.38;12.02;;;;;;;;;;5082241;28;20068;-80
2022/08/31 09:13:49;;;;;;;15.50;11.32;;;;;;;;;;5093042;28;20035;-80
2022/08/31 09:16:16;;;;;;;16.60;11.52;;;;;;;;;;5093881;28;20020;-80
2022/08/31 09:19:03;;;;;;;17.38;11.25;;;;;;;;;;5087130;28;20024;-80
2022/08/31 09:21:39;;;;;;;18.15;12.13;;;;;;;;;;5090219;28;20073;-79
2022/08/31 09:24:05;;;;;;;12.98;11.48;;;;;;;;;;5088979;28;20035;-78
2022/08/31 09:26:34;;;;;;;12.48;11.18;;;;;;;;;;5092161;28;20020;-79
2022/08/31 09:29:02;;;;;;;14.35;11.20;;;;;;;;;;5088254;28;20127;-81
2022/08/31 09:31:32;;;;;;;12.45;10.50;;;;;;;;;;5085924;28;20020;-83
2022/08/31 09:33:59;;;;;;;11.68;10.20;;;;;;;;;;5086910;28;20027;-81
2022/08/31 09:36:36;;;;;;;13.70;9.82;;;;;;;;;;5095358;28;20028;-85
2022/08/31 09:39:30;;;;;;;9.65;8.70;;;;;;;;;;5093714;28;20063;-79
2022/08/31 09:41:59;;;;;;;10.52;9.43;;;;;;;;;;5089336;28;20034;-79
2022/08/31 09:44:34;;;;;;;9.88;7.85;;;;;;;;;;5092452;28;20018;-79
2022/08/31 09:47:02;;;;;;;11.23;7.75;;;;;;;;;;5095004;28;20034;-78
2022/08/31 09:49:38;;;;;;;9.25;8.30;;;;;;;;;;5098188;28;20408;-77
2022/08/31 09:55:17;;;;;;;11.60;7.50;;;;;;;;;;5069198;28;20116;-77
2022/08/31 09:57:57;;;;;;;10.70;7.32;;;;;;;;;;5090163;28;20435;-80
2022/08/31 10:00:43;;;;;;;11.98;6.65;;;;;;;;;;5092629;28;20038;-78
2022/08/31 10:03:21;;;;;;;10.88;7.78;;;;;;;;;;5107589;28;20512;-76
2022/08/31 10:05:53;;;;;;;10.55;7.13;;;;;;;;;;5083630;28;20019;-77
2022/08/31 10:08:28;;;;;;;7.30;5.95;;;;;;;;;;5091385;28;20024;-78
2022/08/31 10:10:57;;;;;;;8.27;6.43;;;;;;;;;;5090244;28;20095;-77
2022/08/31 10:13:55;;;;;;;7.53;5.85;;;;;;;;;;5093838;28;20019;-78
2022/08/31 10:16:29;;;;;;;7.95;5.90;;;;;;;;;;5099390;28;20031;-77
2022/08/31 10:19:06;;;;;;;6.70;6.00;;;;;;;;;;5090804;28;20116;-80
2022/08/31 10:21:53;;;;;;;6.82;6.10;;;;;;;;;;5087347;28;20027;-77
2022/08/31 10:24:27;;;;;;;7.90;6.65;;;;;;;;;;5093786;28;20390;-81
2022/08/31 10:27:14;;;;;;;7.15;5.72;;;;;;;;;;5092339;28;20494;-78
2022/08/31 10:29:40;;;;;;;7.47;5.93;;;;;;;;;;5090220;28;20023;-76
2022/08/31 10:32:14;;;;;;;6.43;5.43;;;;;;;;;;5093066;28;20058;-77
2022/08/31 10:37:48;;;;;;;13.70;6.05;;;;;;;;;;5111184;28;20472;-79
2022/08/31 10:40:19;;;;;;;9.02;5.07;;;;;;;;;;5106511;28;20097;-77
2022/08/31 10:43:08;;;;;;;6.38;5.78;;;;;;;;;;5088127;28;20048;-79
2022/08/31 10:45:36;;;;;;;8.10;5.80;;;;;;;;;;5096216;28;20045;-76
2022/08/31 10:48:03;;;;;;;9.15;5.82;;;;;;;;;;5091682;28;20027;-78
2022/08/31 10:50:37;;;;;;;9.45;6.80;;;;;;;;;;5072944;28;20028;-77
2022/08/31 10:53:16;;;;;;;11.27;8.48;;;;;;;;;;5108064;28;20077;-76
2022/08/31 10:55:50;;;;;;;10.40;6.53;;;;;;;;;;5111482;28;20027;-78
2022/08/31 10:58:25;;;;;;;10.07;6.68;;;;;;;;;;5080117;28;20028;-79
2022/08/31 11:01:00;;;;;;;8.07;7.00;;;;;;;;;;5094953;28;20096;-78
2022/08/31 11:03:35;;;;;;;8.18;7.38;;;;;;;;;;5092849;28;20061;-76
2022/08/31 11:06:22;;;;;;;9.25;6.88;;;;;;;;;;5088854;28;20081;-75
2022/08/31 11:08:57;;;;;;;11.18;7.38;;;;;;;;;;5092197;28;20082;-74
2022/08/31 11:11:26;;;;;;;9.55;7.15;;;;;;;;;;5088943;28;20420;-76
2022/08/31 11:14:13;;;;;;;10.90;7.80;;;;;;;;;;5093458;28;20023;-77
2022/08/31 11:16:48;;;;;;;10.30;8.15;;;;;;;;;;5078235;28;20027;-76
2022/08/31 11:19:27;;;;;;;12.68;7.43;;;;;;;;;;5092887;28;20039;-81
2022/08/31 11:22:04;;;;;;;9.90;7.40;;;;;;;;;;5088409;28;20085;-74
2022/08/31 11:24:49;;;;;;;12.63;8.27;;;;;;;;;;5091052;28;20026;-79
2022/08/31 11:27:17;;;;;;;11.77;8.10;;;;;;;;;;5076734;28;20062;-77
2022/08/31 11:29:56;;;;;;;11.43;7.90;;;;;;;;;;5085602;28;20020;-76
2022/08/31 11:32:35;;;;;;;10.10;8.00;;;;;;;;;;5088940;28;20051;-76
2022/08/31 11:35:07;;;;;;;11.35;10.15;;;;;;;;;;5085738;28;20048;-77
2022/08/31 11:37:51;;;;;;;10.65;9.13;;;;;;;;;;5114728;28;20025;-80
2022/08/31 11:40:42;;;;;;;12.18;9.15;;;;;;;;;;5091015;28;20039;-79
2022/08/31 11:43:27;;;;;;;14.73;10.32;;;;;;;;;;5085375;28;20031;-80
2022/08/31 11:45:54;;;;;;;11.60;9.23;;;;;;;;;;5096356;28;20121;-78
2022/08/31 11:48:41;;;;;;;9.77;8.88;;;;;;;;;;5088622;28;20103;-79
2022/08/31 11:51:07;;;;;;;12.55;8.88;;;;;;;;;;5096464;28;20412;-78
2022/08/31 11:53:35;;;;;;;11.48;9.23;;;;;;;;;;5096128;28;20474;-77
2022/08/31 11:56:02;;;;;;;11.45;9.52;;;;;;;;;;5088486;28;20016;-79
2022/08/31 11:58:31;;;;;;;8.90;8.00;;;;;;;;;;5087788;28;20015;-79
2022/08/31 12:01:09;;;;;;;16.73;8.80;;;;;;;;;;5092114;28;20020;-79
2022/08/31 12:03:35;;;;;;;9.60;8.48;;;;;;;;;;5095508;28;20020;-77
2022/08/31 12:06:02;;;;;;;10.30;9.20;;;;;;;;;;5096241;28;20047;-79
2022/08/31 12:08:31;;;;;;;9.05;8.15;;;;;;;;;;5091456;28;20030;-79
2022/08/31 12:11:29;;;;;;;11.98;9.02;;;;;;;;;;5095272;28;20114;-81
2022/08/31 12:14:01;;;;;;;10.95;8.98;;;;;;;;;;5079799;28;20027;-85
2022/08/31 12:16:28;;;;;;;8.93;7.72;;;;;;;;;;5093911;28;20031;-84
2022/08/31 12:19:01;;;;;;;10.75;8.85;;;;;;;;;;5091194;28;20031;-81
2022/08/31 12:24:33;;;;;;;9.82;7.78;;;;;;;;;;5114181;28;20085;-78
2022/08/31 12:27:02;;;;;;;11.60;7.60;;;;;;;;;;5081921;28;20015;-79
2022/08/31 12:29:30;;;;;;;10.57;6.07;;;;;;;;;;5114607;28;20019;-79
2022/08/31 12:31:56;;;;;;;7.30;6.35;;;;;;;;;;5091002;28;20022;-81
2022/08/31 12:34:22;;;;;;;9.77;7.07;;;;;;;;;;5090332;28;20107;-79
2022/08/31 12:36:48;;;;;;;10.07;5.80;;;;;;;;;;5092503;28;20020;-84
2022/08/31 12:39:24;;;;;;;10.52;7.22;;;;;;;;;;5088600;28;20044;-79
2022/08/31 12:42:03;;;;;;;7.47;6.28;;;;;;;;;;5092714;28;20539;-85
2022/08/31 12:44:33;;;;;;;11.05;6.65;;;;;;;;;;5115974;28;20047;-80
2022/08/31 12:47:16;;;;;;;9.07;6.45;;;;;;;;;;5087350;28;20024;-80
2022/08/31 12:49:47;;;;;;;7.45;6.32;;;;;;;;;;5076093;28;20066;-80
2022/08/31 12:52:16;;;;;;;9.35;5.88;;;;;;;;;;5084361;28;20016;-77
2022/08/31 12:55:04;;;;;;;11.27;6.85;;;;;;;;;;5113985;28;20378;-78
2022/08/31 12:57:48;;;;;;;7.75;6.72;;;;;;;;;;5081707;28;20111;-80
2022/08/31 13:00:33;;;;;;;11.45;6.65;;;;;;;;;;5084117;28;20054;-83
2022/08/31 13:03:14;;;;;;;7.75;5.93;;;;;;;;;;5074846;28;20026;-78
2022/08/31 13:05:40;;;;;;;9.00;6.97;;;;;;;;;;5083204;28;20058;-80
2022/08/31 13:08:23;;;;;;;9.45;5.93;;;;;;;;;;5088918;28;20020;-78
2022/08/31 13:10:49;;;;;;;9.90;6.68;;;;;;;;;;5094806;28;20050;-77
2022/08/31 13:13:26;;;;;;;9.32;6.80;;;;;;;;;;5087610;28;20050;-79
2022/08/31 13:15:59;;;;;;;8.82;6.07;;;;;;;;;;5112869;28;20161;-76
2022/08/31 13:18:27;;;;;;;7.03;5.85;;;;;;;;;;5094091;28;20027;-76
2022/08/31 13:21:04;;;;;;;13.65;8.55;;;;;;;;;;5085929;28;20028;-81
2022/08/31 13:23:33;;;;;;;8.65;7.32;;;;;;;;;;5083449;28;20027;-77
2022/08/31 13:26:08;;;;;;;12.48;8.30;;;;;;;;;;5108907;28;20450;-75
2022/08/31 13:28:35;;;;;;;7.57;6.75;;;;;;;;;;5073843;28;20074;-78
2022/08/31 13:31:07;;;;;;;13.32;8.18;;;;;;;;;;5092299;28;20099;-76
2022/08/31 13:33:35;;;;;;;8.88;7.13;;;;;;;;;;5097523;28;20024;-79
2022/08/31 13:36:08;;;;;;;9.07;8.18;;;;;;;;;;5093034;28;20059;-77
2022/08/31 13:38:43;;;;;;;9.48;6.88;;;;;;;;;;5089957;28;20048;-79
2022/08/31 13:41:17;;;;;;;10.73;7.43;;;;;;;;;;5088854;28;20020;-77
2022/08/31 13:43:50;;;;;;;13.20;8.07;;;;;;;;;;5084886;28;20032;-78
2022/08/31 13:46:21;;;;;;;9.48;7.05;;;;;;;;;;5090384;28;20028;-79
2022/08/31 13:48:55;;;;;;;8.43;6.40;;;;;;;;;;5113027;28;20098;-77
2022/08/31 13:51:25;;;;;;;8.65;6.95;;;;;;;;;;5094105;28;20019;-80
2022/08/31 13:53:54;;;;;;;13.25;6.85;;;;;;;;;;5093568;28;20419;-78
2022/08/31 13:59:23;;;;;;;8.00;5.63;;;;;;;;;;5102184;28;20050;-80
2022/08/31 14:01:55;;;;;;;8.45;6.00;;;;;;;;;;5088569;28;20491;-78
2022/08/31 14:04:45;;;;;;;10.93;6.50;;;;;;;;;;5094251;28;20023;-77
2022/08/31 14:07:22;;;;;;;9.25;6.70;;;;;;;;;;5081990;28;20119;-78
2022/08/31 14:09:51;;;;;;;10.63;6.60;;;;;;;;;;5073919;28;20020;-77
2022/08/31 14:12:28;;;;;;;9.32;6.78;;;;;;;;;;5092144;28;20028;-77
2022/08/31 14:14:56;;;;;;;11.38;6.75;;;;;;;;;;5077212;28;20496;-77
2022/08/31 14:17:25;;;;;;;13.10;7.55;;;;;;;;;;5090331;28;20045;-79
2022/08/31 14:19:51;;;;;;;9.32;7.43;;;;;;;;;;5111748;28;20104;-78
2022/08/31 14:22:31;;;;;;;13.65;9.65;;;;;;;;;;5087027;28;20020;-78
2022/08/31 14:24:59;;;;;;;9.23;6.68;;;;;;;;;;5088924;28;20103;-78
2022/08/31 14:27:25;;;;;;;9.13;7.63;;;;;;;;;;5087583;28;20070;-79
2022/08/31 14:29:51;;;;;;;10.90;7.53;;;;;;;;;;5087048;28;21163;-79
2022/08/31 14:32:21;;;;;;;8.07;5.72;;;;;;;;;;5089830;28;20051;-77
2022/08/31 14:34:48;;;;;;;10.70;6.90;;;;;;;;;;5109305;28;20012;-77
2022/08/31 14:37:28;;;;;;;9.70;8.30;;;;;;;;;;5081987;28;20356;-80
2022/08/31 14:40:00;;;;;;;8.32;6.45;;;;;;;;;;5073550;28;20515;-80
2022/08/31 14:42:26;;;;;;;10.55;6.18;;;;;;;;;;5092673;28;20351;-84
2022/08/31 14:45:01;;;;;;;8.50;6.70;;;;;;;;;;5101492;28;20016;-82
2022/08/31 14:47:28;;;;;;;8.43;6.40;;;;;;;;;;5078985;28;20126;-80
2022/08/31 14:50:04;;;;;;;7.28;5.68;;;;;;;;;;5092555;28;20028;-78
2022/08/31 14:52:32;;;;;;;6.65;5.90;;;;;;;;;;5078416;28;20035;-82
2022/08/31 14:55:01;;;;;;;13.45;6.38;;;;;;;;;;5085387;28;20020;-77
2022/08/31 14:57:28;;;;;;;16.60;9.57;;;;;;;;;;5087369;28;20077;-83